createdAt,value
2022-09-14T00:01:21.545Z,16.3
2022-09-14T00:01:49.765Z,16.39
2022-09-14T00:02:49.635Z,16.4
2022-09-14T00:03:49.190Z,16.36
2022-09-14T00:04:49.158Z,16.34
2022-09-14T00:05:48.862Z,16.37
2022-09-14T00:06:49.135Z,16.37
2022-09-14T00:07:48.848Z,16.37
2022-09-14T00:08:49.149Z,16.4
2022-09-14T00:09:48.873Z,16.4
2022-09-14T00:10:49.085Z,16.37
2022-09-14T00:11:48.873Z,16.36
2022-09-14T00:12:48.818Z,16.27
2022-09-14T00:13:49.196Z,16.29
2022-09-14T00:14:48.549Z,16.32
2022-09-14T00:15:48.538Z,16.29
2022-09-14T00:16:49.422Z,16.32
2022-09-14T00:17:48.536Z,16.32
2022-09-14T00:18:49.058Z,16.26
2022-09-14T00:19:48.819Z,16.3
2022-09-14T00:20:48.784Z,16.3
2022-09-14T00:21:48.500Z,16.27
2022-09-14T00:22:48.489Z,16.27
2022-09-14T00:23:48.743Z,16.3
2022-09-14T00:24:48.482Z,16.25
2022-09-14T00:25:48.983Z,16.14
2022-09-14T00:26:48.719Z,16.25
2022-09-14T00:27:48.709Z,16.16
2022-09-14T00:28:48.948Z,16.14
2022-09-14T00:29:48.464Z,16.16
2022-09-14T00:30:48.466Z,16.07
2022-09-14T00:31:48.741Z,16.07
2022-09-14T00:32:48.681Z,16.1
2022-09-14T00:33:48.674Z,16.08
2022-09-14T00:34:48.667Z,16.07
2022-09-14T00:35:48.963Z,16.04
2022-09-14T00:36:48.708Z,15.92
2022-09-14T00:37:48.643Z,15.96
2022-09-14T00:38:48.973Z,15.99
2022-09-14T00:39:48.812Z,15.98
2022-09-14T00:40:48.360Z,15.99
2022-09-14T00:41:48.880Z,15.92
2022-09-14T00:42:48.609Z,15.95
2022-09-14T00:43:48.350Z,15.99
2022-09-14T00:44:48.335Z,15.95
2022-09-14T00:45:49.048Z,15.96
2022-09-14T00:46:48.834Z,15.8
2022-09-14T00:47:48.314Z,15.88
2022-09-14T00:48:48.890Z,15.88
2022-09-14T00:49:48.814Z,15.93
2022-09-14T00:50:48.542Z,15.84
2022-09-14T00:51:48.846Z,15.91
2022-09-14T00:52:48.554Z,15.89
2022-09-14T00:53:48.529Z,15.83
2022-09-14T00:54:48.782Z,15.92
2022-09-14T00:55:48.258Z,15.86
2022-09-14T00:56:48.503Z,15.73
2022-09-14T00:57:48.503Z,15.8
2022-09-14T00:58:48.338Z,15.84
2022-09-14T00:59:48.227Z,15.77
2022-09-14T01:00:48.927Z,15.73
2022-09-14T01:01:48.419Z,15.75
2022-09-14T01:02:48.718Z,15.78
2022-09-14T01:03:48.455Z,15.73
2022-09-14T01:04:48.445Z,15.74
2022-09-14T01:05:48.438Z,15.74
2022-09-14T01:06:48.689Z,15.73
2022-09-14T01:07:48.557Z,15.77
2022-09-14T01:08:48.882Z,15.81
2022-09-14T01:09:48.414Z,15.78
2022-09-14T01:10:48.403Z,15.77
2022-09-14T01:11:53.818Z,15.73
2022-09-14T01:12:48.395Z,15.74
2022-09-14T01:13:48.639Z,15.75
2022-09-14T01:14:48.379Z,15.71
2022-09-14T01:15:48.112Z,15.73
2022-09-14T01:16:48.353Z,15.75
2022-09-14T01:17:48.352Z,15.77
2022-09-14T01:18:48.370Z,15.75
2022-09-14T01:19:48.348Z,15.74
2022-09-14T01:20:48.593Z,15.74
2022-09-14T01:21:48.338Z,15.73
2022-09-14T01:22:48.576Z,15.78
2022-09-14T01:23:48.611Z,15.75
2022-09-14T01:24:48.590Z,15.74
2022-09-14T01:25:48.551Z,15.74
2022-09-14T01:26:48.288Z,15.7
2022-09-14T01:27:48.280Z,15.74
2022-09-14T01:28:48.530Z,15.74
2022-09-14T01:29:48.263Z,15.7
2022-09-14T01:30:48.259Z,15.73
2022-09-14T01:31:48.192Z,15.73
2022-09-14T01:32:47.987Z,15.71
2022-09-14T01:34:48.233Z,15.71
2022-09-14T01:35:48.479Z,15.68
2022-09-14T01:36:48.224Z,15.68
2022-09-14T01:37:48.208Z,15.6
2022-09-14T01:38:48.203Z,15.67
2022-09-14T01:39:48.710Z,15.6
2022-09-14T01:40:48.473Z,15.67
2022-09-14T01:41:48.434Z,15.62
2022-09-14T01:42:48.433Z,15.65
2022-09-14T01:43:48.162Z,15.62
2022-09-14T01:44:48.414Z,15.63
2022-09-14T01:45:48.164Z,15.71
2022-09-14T01:46:48.141Z,15.62
2022-09-14T01:47:47.882Z,15.71
2022-09-14T01:48:48.232Z,15.67
2022-09-14T01:49:48.374Z,15.65
2022-09-14T01:50:48.374Z,15.67
2022-09-14T01:51:48.403Z,15.68
2022-09-14T01:52:47.847Z,15.67
2022-09-14T01:53:48.089Z,15.71
2022-09-14T01:54:48.085Z,15.63
2022-09-14T01:55:48.419Z,15.65
2022-09-14T01:56:48.177Z,15.68
2022-09-14T01:57:48.316Z,15.68
2022-09-14T01:58:48.314Z,15.58
2022-09-14T01:59:48.065Z,15.63
2022-09-14T02:00:48.014Z,15.62
2022-09-14T02:01:54.601Z,15.59
2022-09-14T02:02:48.487Z,15.7
2022-09-14T02:03:48.288Z,15.65
2022-09-14T02:04:48.269Z,15.59
2022-09-14T02:05:48.015Z,15.58
2022-09-14T02:06:48.260Z,15.68
2022-09-14T02:07:47.992Z,15.63
2022-09-14T02:08:47.718Z,15.7
2022-09-14T02:09:47.714Z,15.62
2022-09-14T02:10:47.715Z,15.63
2022-09-14T02:11:48.353Z,15.6
2022-09-14T02:12:48.232Z,15.6
2022-09-14T02:13:48.277Z,15.59
2022-09-14T02:14:47.958Z,15.59
2022-09-14T02:15:47.929Z,15.67
2022-09-14T02:16:47.974Z,15.63
2022-09-14T02:17:47.914Z,15.71
2022-09-14T02:18:47.909Z,15.59
2022-09-14T02:19:47.640Z,15.63
2022-09-14T02:20:48.165Z,15.68
2022-09-14T02:21:47.895Z,15.6
2022-09-14T02:22:47.874Z,15.6
2022-09-14T02:23:47.872Z,15.68
2022-09-14T02:24:47.855Z,15.63
2022-09-14T02:25:48.109Z,15.7
2022-09-14T02:26:48.102Z,15.68
2022-09-14T02:27:48.143Z,15.65
2022-09-14T02:28:47.896Z,15.67
2022-09-14T02:29:47.839Z,15.67
2022-09-14T02:30:47.813Z,15.65
2022-09-14T02:31:48.396Z,15.62
2022-09-14T02:32:48.059Z,15.62
2022-09-14T02:33:48.059Z,15.6
2022-09-14T02:34:47.789Z,15.68
2022-09-14T02:35:48.035Z,15.68
2022-09-14T02:36:48.029Z,15.73
2022-09-14T02:37:47.770Z,15.7
2022-09-14T02:38:47.757Z,15.65
2022-09-14T02:39:47.922Z,15.63
2022-09-14T02:40:47.997Z,15.7
2022-09-14T02:41:47.477Z,15.65
2022-09-14T02:42:47.981Z,15.78
2022-09-14T02:43:48.000Z,15.71
2022-09-14T02:44:47.738Z,15.7
2022-09-14T02:45:47.723Z,15.73
2022-09-14T02:46:47.942Z,15.59
2022-09-14T02:47:47.948Z,15.71
2022-09-14T02:48:47.686Z,15.7
2022-09-14T02:49:47.944Z,15.68
2022-09-14T02:50:47.933Z,15.6
2022-09-14T02:51:47.404Z,15.71
2022-09-14T02:52:47.653Z,15.71
2022-09-14T02:53:47.900Z,15.7
2022-09-14T02:54:47.897Z,15.68
2022-09-14T02:55:47.374Z,15.63
2022-09-14T02:56:47.626Z,15.59
2022-09-14T02:57:47.871Z,15.63
2022-09-14T02:58:48.035Z,15.65
2022-09-14T02:59:47.659Z,15.7
2022-09-14T03:00:48.154Z,15.62
2022-09-14T03:01:47.538Z,15.63
2022-09-14T03:02:47.837Z,15.7
2022-09-14T03:03:47.580Z,15.65
2022-09-14T03:04:47.581Z,15.59
2022-09-14T03:05:47.302Z,15.63
2022-09-14T03:06:47.291Z,15.59
2022-09-14T03:07:47.544Z,15.65
2022-09-14T03:08:47.511Z,15.59
2022-09-14T03:09:47.530Z,15.7
2022-09-14T03:10:47.276Z,15.7
2022-09-14T03:11:47.774Z,15.65
2022-09-14T03:12:47.251Z,15.68
2022-09-14T03:13:47.241Z,15.67
2022-09-14T03:14:47.235Z,15.65
2022-09-14T03:15:47.985Z,15.62
2022-09-14T03:16:47.764Z,15.68
2022-09-14T03:17:47.729Z,15.55
2022-09-14T03:18:47.950Z,15.68
2022-09-14T03:19:47.709Z,15.68
2022-09-14T03:20:47.194Z,15.68
2022-09-14T03:21:47.438Z,15.65
2022-09-14T03:22:47.439Z,15.67
2022-09-14T03:23:47.426Z,15.63
2022-09-14T03:24:47.686Z,15.67
2022-09-14T03:25:47.158Z,15.62
2022-09-14T03:26:47.405Z,15.62
2022-09-14T03:27:47.652Z,15.58
2022-09-14T03:28:47.130Z,15.63
2022-09-14T03:29:47.384Z,15.59
2022-09-14T03:30:47.685Z,15.67
2022-09-14T03:31:48.050Z,15.68
2022-09-14T03:32:47.394Z,15.59
2022-09-14T03:50:03.324Z,15.55
2022-09-14T03:51:02.723Z,15.59
2022-09-14T03:52:04.268Z,15.51
2022-09-14T03:53:02.703Z,15.51
2022-09-14T03:54:02.693Z,15.49
2022-09-14T03:55:02.936Z,15.55
2022-09-14T03:56:03.194Z,15.4
2022-09-14T03:57:03.175Z,15.45
2022-09-14T03:58:03.178Z,15.43
2022-09-14T03:59:02.902Z,15.38
2022-09-14T04:00:03.153Z,15.47
2022-09-14T04:01:03.139Z,15.41
2022-09-14T04:02:02.889Z,15.45
2022-09-14T04:03:03.156Z,15.43
2022-09-14T04:04:02.598Z,15.38
2022-09-14T04:05:02.852Z,15.41
2022-09-14T04:06:03.176Z,15.4
2022-09-14T04:07:02.834Z,15.43
2022-09-14T04:08:02.828Z,15.35
2022-09-14T04:09:02.819Z,15.44
2022-09-14T04:10:02.810Z,15.41
2022-09-14T04:11:02.557Z,15.43
2022-09-14T04:12:02.535Z,15.41
2022-09-14T04:13:02.784Z,15.43
2022-09-14T04:14:02.523Z,15.44
2022-09-14T04:15:02.764Z,15.41
2022-09-14T04:16:03.000Z,15.43
2022-09-14T04:17:02.774Z,15.4
2022-09-14T04:18:02.490Z,15.52
2022-09-14T04:19:02.608Z,15.55
2022-09-14T04:20:02.779Z,15.43
2022-09-14T04:21:08.836Z,15.52
2022-09-14T04:22:03.190Z,15.52
2022-09-14T04:23:02.964Z,15.51
2022-09-14T04:24:22.052Z,15.53
2022-09-14T04:25:02.694Z,15.51
2022-09-14T04:26:02.685Z,15.56
2022-09-14T04:27:02.679Z,15.55
2022-09-14T04:28:24.416Z,15.51
2022-09-14T04:29:02.414Z,15.6
2022-09-14T04:30:02.658Z,15.49
2022-09-14T04:31:02.605Z,15.59
2022-09-14T04:32:02.917Z,15.58
2022-09-14T04:33:02.889Z,15.63
2022-09-14T04:34:02.367Z,15.58
2022-09-14T04:35:02.875Z,15.56
2022-09-14T04:36:02.870Z,15.45
2022-09-14T04:37:02.376Z,15.55
2022-09-14T04:38:02.899Z,15.56
2022-09-14T04:39:02.332Z,15.58
2022-09-14T04:40:02.599Z,15.62
2022-09-14T04:41:02.829Z,15.59
2022-09-14T04:42:02.820Z,15.55
2022-09-14T04:43:02.559Z,15.59
2022-09-14T04:44:02.549Z,15.63
2022-09-14T04:45:02.542Z,15.62
2022-09-14T04:46:02.628Z,15.6
2022-09-14T04:47:02.916Z,15.71
2022-09-14T04:48:02.538Z,15.74
2022-09-14T04:49:02.513Z,15.65
2022-09-14T04:50:02.761Z,15.7
2022-09-14T04:51:02.501Z,15.75
2022-09-14T04:52:02.752Z,15.75
2022-09-14T04:53:02.254Z,15.8
2022-09-14T04:54:02.792Z,15.74
2022-09-14T04:55:02.209Z,15.74
2022-09-14T04:56:02.470Z,15.74
2022-09-14T04:57:02.474Z,15.84
2022-09-14T04:58:02.233Z,15.83
2022-09-14T04:59:02.438Z,15.88
2022-09-14T05:00:02.487Z,15.92
2022-09-14T05:01:02.685Z,15.89
2022-09-14T05:02:02.883Z,15.83
2022-09-14T05:03:02.647Z,15.86
2022-09-14T05:04:02.405Z,15.89
2022-09-14T05:05:02.656Z,15.89
2022-09-14T05:06:02.645Z,15.86
2022-09-14T05:07:02.382Z,15.92
2022-09-14T05:08:02.377Z,15.92
2022-09-14T05:09:02.147Z,15.96
2022-09-14T05:10:02.764Z,15.95
2022-09-14T05:11:02.619Z,15.98
2022-09-14T05:12:02.343Z,15.95
2022-09-14T05:13:02.593Z,15.96
2022-09-14T05:14:02.587Z,15.95
2022-09-14T05:15:02.060Z,15.96
2022-09-14T05:16:02.480Z,15.95
2022-09-14T05:17:02.308Z,15.98
2022-09-14T05:18:02.040Z,15.99
2022-09-14T05:19:02.358Z,16.04
2022-09-14T05:20:02.284Z,16
2022-09-14T05:21:06.322Z,16.07
2022-09-14T05:22:02.016Z,15.93
2022-09-14T05:23:02.270Z,16.02
2022-09-14T05:24:02.254Z,15.96
2022-09-14T05:25:02.541Z,16.07
2022-09-14T05:26:02.549Z,16.07
2022-09-14T05:27:06.140Z,16.08
2022-09-14T05:28:02.236Z,16.06
2022-09-14T05:29:02.480Z,16.07
2022-09-14T05:30:01.987Z,16
2022-09-14T05:31:02.513Z,16.07
2022-09-14T05:32:02.255Z,16.08
2022-09-14T05:33:03.054Z,15.99
2022-09-14T05:34:01.932Z,16
2022-09-14T05:35:01.979Z,15.98
2022-09-14T05:36:02.425Z,15.91
2022-09-14T05:37:02.420Z,15.95
2022-09-14T05:38:01.907Z,16
2022-09-14T05:39:02.415Z,15.96
2022-09-14T05:40:02.580Z,16.06
2022-09-14T05:41:01.936Z,16.07
2022-09-14T05:42:02.479Z,16.06
2022-09-14T05:43:02.121Z,16.08
2022-09-14T05:44:01.856Z,16.02
2022-09-14T05:45:01.848Z,16.13
2022-09-14T05:46:02.535Z,16.13
2022-09-14T05:47:02.351Z,16.11
2022-09-14T05:48:01.829Z,16.11
2022-09-14T05:49:02.335Z,16.06
2022-09-14T05:50:01.813Z,16.1
2022-09-14T05:51:02.325Z,16.18
2022-09-14T05:52:02.065Z,16.1
2022-09-14T05:53:02.307Z,16.1
2022-09-14T05:54:02.313Z,16.13
2022-09-14T05:55:02.035Z,16.13
2022-09-14T05:56:02.285Z,16.1
2022-09-14T05:57:02.306Z,16.11
2022-09-14T05:58:02.409Z,16.11
2022-09-14T05:59:01.753Z,16.08
2022-09-14T06:00:02.003Z,16.08
2022-09-14T06:01:01.997Z,16.18
2022-09-14T06:02:02.411Z,16.08
2022-09-14T06:03:01.722Z,16.13
2022-09-14T06:04:02.262Z,16.13
2022-09-14T06:05:02.428Z,16.14
2022-09-14T06:06:01.708Z,16.18
2022-09-14T06:07:22.368Z,16.17
2022-09-14T06:08:01.944Z,16.11
2022-09-14T06:09:02.193Z,16.13
2022-09-14T06:10:01.932Z,16.08
2022-09-14T06:11:01.923Z,16.06
2022-09-14T06:12:01.667Z,16.08
2022-09-14T06:13:01.673Z,16.1
2022-09-14T06:14:02.279Z,16.14
2022-09-14T06:15:01.637Z,16.04
2022-09-14T06:16:01.893Z,16.08
2022-09-14T06:17:01.621Z,16.11
2022-09-14T06:18:01.626Z,16.08
2022-09-14T06:19:02.130Z,16.1
2022-09-14T06:20:07.250Z,16.13
2022-09-14T06:21:02.112Z,16.07
2022-09-14T06:22:01.845Z,16.07
2022-09-14T06:23:01.851Z,16.14
2022-09-14T06:24:02.118Z,16.18
2022-09-14T06:25:02.082Z,16.14
2022-09-14T06:26:01.558Z,16.16
2022-09-14T06:27:02.069Z,16.18
2022-09-14T06:28:02.057Z,16.16
2022-09-14T06:29:01.825Z,16.25
2022-09-14T06:30:02.092Z,16.22
2022-09-14T06:31:01.787Z,16.21
2022-09-14T06:32:01.778Z,16.18
2022-09-14T06:33:02.027Z,16.25
2022-09-14T06:34:02.015Z,16.18
2022-09-14T06:35:01.758Z,16.18
2022-09-14T06:36:01.494Z,16.25
2022-09-14T06:37:01.997Z,16.22
2022-09-14T06:38:01.734Z,16.29
2022-09-14T06:39:01.992Z,16.22
2022-09-14T06:40:02.118Z,16.26
2022-09-14T06:41:01.973Z,16.25
2022-09-14T06:42:01.707Z,16.27
2022-09-14T06:43:01.699Z,16.14
2022-09-14T06:44:01.999Z,16.14
2022-09-14T06:45:01.716Z,16.17
2022-09-14T06:46:02.100Z,16.16
2022-09-14T06:47:01.931Z,16.11
2022-09-14T06:48:01.661Z,16.13
2022-09-14T06:49:01.916Z,16.22
2022-09-14T06:50:01.650Z,16.3
2022-09-14T06:51:01.644Z,16.3
2022-09-14T06:52:01.927Z,16.29
2022-09-14T06:53:01.891Z,16.22
2022-09-14T06:54:01.891Z,16.25
2022-09-14T06:55:01.617Z,16.22
2022-09-14T06:56:01.865Z,16.25
2022-09-14T06:57:01.343Z,16.25
2022-09-14T06:58:01.336Z,16.27
2022-09-14T06:59:01.589Z,16.3
2022-09-14T07:00:01.364Z,16.32
2022-09-14T07:01:01.608Z,16.29
2022-09-14T07:02:01.960Z,16.25
2022-09-14T07:03:01.815Z,16.29
2022-09-14T07:04:01.826Z,16.26
2022-09-14T07:05:01.559Z,16.25
2022-09-14T07:06:01.546Z,16.3
2022-09-14T07:07:01.532Z,16.32
2022-09-14T07:08:01.530Z,16.18
2022-09-14T07:09:01.778Z,16.27
2022-09-14T07:10:01.775Z,16.36
2022-09-14T07:11:01.506Z,16.29
2022-09-14T07:12:01.500Z,16.32
2022-09-14T07:13:01.234Z,16.3
2022-09-14T07:14:01.481Z,16.27
2022-09-14T07:15:01.485Z,16.29
2022-09-14T07:16:01.219Z,16.27
2022-09-14T07:17:01.742Z,16.32
2022-09-14T07:18:01.771Z,16.33
2022-09-14T07:19:01.711Z,16.33
2022-09-14T07:20:01.453Z,16.26
2022-09-14T07:21:07.217Z,16.17
2022-09-14T07:22:01.179Z,16.36
2022-09-14T07:23:01.681Z,16.3
2022-09-14T07:24:01.422Z,16.33
2022-09-14T07:25:01.415Z,16.25
2022-09-14T07:26:01.421Z,16.44
2022-09-14T07:27:01.137Z,16.29
2022-09-14T07:28:01.649Z,16.33
2022-09-14T07:29:01.383Z,16.42
2022-09-14T07:30:01.378Z,16.42
2022-09-14T07:31:04.052Z,16.4
2022-09-14T07:32:01.370Z,16.51
2022-09-14T07:33:01.419Z,16.47
2022-09-14T07:34:01.753Z,16.49
2022-09-14T07:35:01.343Z,16.63
2022-09-14T07:36:01.353Z,16.59
2022-09-14T07:37:01.584Z,16.69
2022-09-14T07:38:01.069Z,16.65
2022-09-14T07:39:01.625Z,16.69
2022-09-14T07:40:01.613Z,16.67
2022-09-14T07:41:01.047Z,16.66
2022-09-14T07:42:01.298Z,16.67
2022-09-14T07:43:02.617Z,16.69
2022-09-14T07:44:01.024Z,16.62
2022-09-14T07:45:01.277Z,16.63
2022-09-14T07:46:01.767Z,16.7
2022-09-14T07:47:01.520Z,16.62
2022-09-14T07:48:00.999Z,16.69
2022-09-14T07:49:01.032Z,16.65
2022-09-14T07:50:01.561Z,16.63
2022-09-14T07:51:00.988Z,16.7
2022-09-14T07:52:01.239Z,16.72
2022-09-14T07:53:00.981Z,16.77
2022-09-14T07:54:01.227Z,16.8
2022-09-14T07:55:01.215Z,16.84
2022-09-14T07:56:01.203Z,16.85
2022-09-14T07:57:01.458Z,16.88
2022-09-14T07:58:01.565Z,16.97
2022-09-14T07:59:45.851Z,16.94
2022-09-14T08:00:01.188Z,16.91
2022-09-14T08:01:01.625Z,16.97
2022-09-14T08:02:01.994Z,17.07
2022-09-14T08:03:01.210Z,17.03
2022-09-14T08:04:05.520Z,17.09
2022-09-14T08:05:01.142Z,17.09
2022-09-14T08:06:01.447Z,17.12
2022-09-14T08:07:01.460Z,17.06
2022-09-14T08:08:01.130Z,17.21
2022-09-14T08:09:00.862Z,17.06
2022-09-14T08:10:01.370Z,17.15
2022-09-14T08:11:01.367Z,17.09
2022-09-14T08:12:00.843Z,17.13
2022-09-14T08:13:01.352Z,17.09
2022-09-14T08:14:01.084Z,17.13
2022-09-14T08:15:00.824Z,17.18
2022-09-14T08:16:01.335Z,17.22
2022-09-14T08:17:01.113Z,17.21
2022-09-14T08:18:00.810Z,17.22
2022-09-14T08:19:01.063Z,17.21
2022-09-14T08:20:01.073Z,17.2
2022-09-14T08:21:01.302Z,17.22
2022-09-14T08:22:01.566Z,17.28
2022-09-14T08:23:01.287Z,17.28
2022-09-14T08:24:01.024Z,17.27
2022-09-14T08:25:00.767Z,17.28
2022-09-14T08:26:01.016Z,17.3
2022-09-14T08:27:01.265Z,17.38
2022-09-14T08:28:00.746Z,17.35
2022-09-14T08:29:01.003Z,17.4
2022-09-14T08:30:00.993Z,17.42
2022-09-14T08:31:00.985Z,17.35
2022-09-14T08:32:01.266Z,17.38
2022-09-14T08:33:05.945Z,17.4
2022-09-14T08:34:00.968Z,17.4
2022-09-14T08:35:00.961Z,17.47
2022-09-14T08:36:03.014Z,17.43
2022-09-14T08:37:00.948Z,17.45
2022-09-14T08:38:01.267Z,17.47
2022-09-14T08:39:00.964Z,17.45
2022-09-14T08:40:01.180Z,17.42
2022-09-14T08:41:00.924Z,17.54
2022-09-14T08:42:01.173Z,17.47
2022-09-14T08:43:00.938Z,17.45
2022-09-14T08:44:00.910Z,17.49
2022-09-14T08:45:01.910Z,17.52
2022-09-14T08:46:01.164Z,17.55
2022-09-14T08:47:00.896Z,17.6
2022-09-14T08:48:01.146Z,17.62
2022-09-14T08:49:01.145Z,17.65
2022-09-14T08:50:00.877Z,17.69
2022-09-14T08:51:00.611Z,17.74
2022-09-14T08:52:00.885Z,17.86
2022-09-14T08:53:00.868Z,17.9
2022-09-14T08:54:01.157Z,17.92
2022-09-14T08:55:00.843Z,18.06
2022-09-14T08:56:01.108Z,18.03
2022-09-14T08:57:01.092Z,18.02
2022-09-14T08:58:00.572Z,18.17
2022-09-14T08:59:01.078Z,18.21
2022-09-14T09:00:00.561Z,18.23
2022-09-14T09:01:01.137Z,18.29
2022-09-14T09:02:00.551Z,18.34
2022-09-14T09:03:00.538Z,18.47
2022-09-14T09:04:01.163Z,18.5
2022-09-14T09:05:00.538Z,18.5
2022-09-14T09:06:01.040Z,18.57
2022-09-14T09:07:00.775Z,18.57
2022-09-14T09:08:00.888Z,18.53
2022-09-14T09:09:00.520Z,18.54
2022-09-14T09:10:01.166Z,18.63
2022-09-14T09:11:01.025Z,18.68
2022-09-14T09:12:01.009Z,18.74
2022-09-14T09:13:00.761Z,18.61
2022-09-14T09:14:00.493Z,18.65
2022-09-14T09:15:01.007Z,18.63
2022-09-14T09:16:01.191Z,18.54
2022-09-14T09:17:00.725Z,18.66
2022-09-14T09:18:00.723Z,18.68
2022-09-14T09:19:00.979Z,18.51
2022-09-14T09:20:00.975Z,18.51
2022-09-14T09:21:00.964Z,18.51
2022-09-14T09:22:00.957Z,18.53
2022-09-14T09:23:00.435Z,18.49
2022-09-14T09:24:01.067Z,18.53
2022-09-14T09:25:00.685Z,18.51
2022-09-14T09:26:00.998Z,18.51
2022-09-14T09:27:00.426Z,18.47
2022-09-14T09:28:00.934Z,18.5
2022-09-14T09:29:00.672Z,18.49
2022-09-14T09:30:00.400Z,18.44
2022-09-14T09:31:00.969Z,18.41
2022-09-14T09:32:00.977Z,18.36
2022-09-14T09:33:00.393Z,18.35
2022-09-14T09:34:00.648Z,18.31
2022-09-14T09:35:00.634Z,18.32
2022-09-14T09:36:00.371Z,18.24
2022-09-14T09:37:00.634Z,18.35
2022-09-14T09:38:00.365Z,18.29
2022-09-14T09:39:05.620Z,18.29
2022-09-14T09:40:00.902Z,18.39
2022-09-14T09:41:00.614Z,18.34
2022-09-14T09:42:01.001Z,18.39
2022-09-14T09:43:00.851Z,18.36
2022-09-14T09:44:00.588Z,18.35
2022-09-14T09:45:06.867Z,18.38
2022-09-14T09:46:00.835Z,18.47
2022-09-14T09:47:00.898Z,18.44
2022-09-14T09:48:00.322Z,18.49
2022-09-14T09:49:00.820Z,18.53
2022-09-14T09:50:00.559Z,18.65
2022-09-14T09:51:00.810Z,18.69
2022-09-14T09:52:00.844Z,18.65
2022-09-14T09:53:04.696Z,18.65
2022-09-14T09:54:00.796Z,18.75
2022-09-14T09:55:00.605Z,18.68
2022-09-14T09:56:00.790Z,18.68
2022-09-14T09:57:00.795Z,18.72
2022-09-14T09:58:00.999Z,18.69
2022-09-14T09:59:00.262Z,18.72
2022-09-14T10:00:00.508Z,18.69
2022-09-14T10:01:01.023Z,18.63
2022-09-14T10:02:00.902Z,18.68
2022-09-14T10:03:00.493Z,18.61
2022-09-14T10:04:00.493Z,18.54
2022-09-14T10:05:00.385Z,18.49
2022-09-14T10:06:00.483Z,18.47
2022-09-14T10:07:00.226Z,18.36
2022-09-14T10:08:00.732Z,18.45
2022-09-14T10:09:00.472Z,18.41
2022-09-14T10:10:00.462Z,18.42
2022-09-14T10:11:00.306Z,18.41
2022-09-14T10:12:00.715Z,18.39
2022-09-14T10:13:00.708Z,18.51
2022-09-14T10:14:00.744Z,18.45
2022-09-14T10:15:00.711Z,18.47
2022-09-14T10:16:00.866Z,18.53
2022-09-14T10:17:00.688Z,18.45
2022-09-14T10:18:00.689Z,18.44
2022-09-14T10:19:00.509Z,18.45
2022-09-14T10:20:00.157Z,18.32
2022-09-14T10:21:00.408Z,18.34
2022-09-14T10:22:00.403Z,18.36
2022-09-14T10:23:00.149Z,18.38
2022-09-14T10:24:00.652Z,18.31
2022-09-14T10:25:00.136Z,18.24
2022-09-14T10:26:00.638Z,18.34
2022-09-14T10:27:00.519Z,18.39
2022-09-14T10:28:00.372Z,18.32
2022-09-14T10:29:00.111Z,18.36
2022-09-14T10:30:00.756Z,18.29
2022-09-14T10:31:00.253Z,18.35
2022-09-14T10:32:00.353Z,18.41
2022-09-14T10:33:00.357Z,18.38
2022-09-14T10:34:00.596Z,18.31
2022-09-14T10:35:00.348Z,18.34
2022-09-14T10:36:00.330Z,18.24
2022-09-14T10:37:00.586Z,18.2
2022-09-14T10:38:00.331Z,18.31
2022-09-14T10:39:00.317Z,18.23
2022-09-14T10:40:00.874Z,18.32
2022-09-14T10:41:00.305Z,18.29
2022-09-14T10:42:00.560Z,18.24
2022-09-14T10:43:00.132Z,18.32
2022-09-14T10:44:00.041Z,18.31
2022-09-14T10:45:00.542Z,18.34
2022-09-14T10:46:00.901Z,18.42
2022-09-14T10:47:05.179Z,18.45
2022-09-14T10:48:00.797Z,18.47
2022-09-14T10:49:00.523Z,18.47
2022-09-14T10:50:00.390Z,18.57
2022-09-14T10:50:59.998Z,18.5
2022-09-14T10:52:00.509Z,18.56
2022-09-14T10:53:00.255Z,18.44
2022-09-14T10:54:00.243Z,18.49
2022-09-14T10:55:00.256Z,18.49
2022-09-14T10:55:59.979Z,18.42
2022-09-14T10:57:00.486Z,18.39
2022-09-14T10:58:00.225Z,18.38
2022-09-14T10:59:00.350Z,18.42
2022-09-14T11:00:00.228Z,18.36
2022-09-14T11:00:59.960Z,18.27
2022-09-14T11:02:00.911Z,18.35
2022-09-14T11:03:00.869Z,18.24
2022-09-14T11:04:00.197Z,18.21
2022-09-14T11:05:00.446Z,18.16
2022-09-14T11:06:00.183Z,18.14
2022-09-14T11:07:00.177Z,18.17
2022-09-14T11:08:00.183Z,18.2
2022-09-14T11:09:00.176Z,18.17
2022-09-14T11:10:00.431Z,18.19
2022-09-14T11:11:00.157Z,18.19
2022-09-14T11:12:00.411Z,18.17
2022-09-14T11:13:00.419Z,18.21
2022-09-14T11:14:00.144Z,18.17
2022-09-14T11:15:00.167Z,18.17
2022-09-14T11:16:00.659Z,18.2
2022-09-14T11:17:00.382Z,18.06
2022-09-14T11:18:00.500Z,18.06
2022-09-14T11:19:00.142Z,18.16
2022-09-14T11:19:59.853Z,18.19
2022-09-14T11:21:00.105Z,18.19
2022-09-14T11:22:00.360Z,18.27
2022-09-14T11:23:00.352Z,18.35
2022-09-14T11:24:00.346Z,18.32
2022-09-14T11:25:00.342Z,18.44
2022-09-14T11:25:59.835Z,18.51
2022-09-14T11:26:59.819Z,18.54
2022-09-14T11:28:00.067Z,18.66
2022-09-14T11:28:59.806Z,18.68
2022-09-14T11:30:00.197Z,18.69
2022-09-14T11:31:00.462Z,18.76
2022-09-14T11:32:24.862Z,18.84
2022-09-14T11:33:00.056Z,18.78
2022-09-14T11:34:00.341Z,18.81
2022-09-14T11:35:00.321Z,18.9
2022-09-14T11:36:00.028Z,18.87
2022-09-14T11:37:00.287Z,18.84
2022-09-14T11:38:00.017Z,18.81
2022-09-14T11:39:03.481Z,18.79
2022-09-14T11:40:00.375Z,18.78
2022-09-14T11:41:00.285Z,18.76
2022-09-14T11:42:00.262Z,18.72
2022-09-14T11:43:00.004Z,18.71
2022-09-14T11:44:00.250Z,18.71
2022-09-14T11:44:59.989Z,18.72
2022-09-14T11:45:59.916Z,18.81
2022-09-14T11:47:05.319Z,18.9
2022-09-14T11:48:00.228Z,18.96
2022-09-14T11:49:00.989Z,18.91
2022-09-14T11:50:00.318Z,18.93
2022-09-14T11:50:59.984Z,18.91
2022-09-14T11:51:59.961Z,19.05
2022-09-14T11:52:59.952Z,18.96
2022-09-14T11:53:59.692Z,19.02
2022-09-14T11:54:59.938Z,18.96
2022-09-14T11:55:59.940Z,18.96
2022-09-14T11:56:59.933Z,18.99
2022-09-14T11:57:59.932Z,19.06
2022-09-14T11:58:59.981Z,19.02
2022-09-14T11:59:59.688Z,19.05
2022-09-14T12:01:00.212Z,19.13
2022-09-14T12:01:59.649Z,19.16
2022-09-14T12:03:00.201Z,19.28
2022-09-14T12:04:00.441Z,19.25
2022-09-14T12:05:00.172Z,19.3
2022-09-14T12:06:00.309Z,19.34
2022-09-14T12:07:00.200Z,19.35
2022-09-14T12:07:59.890Z,19.3
2022-09-14T12:09:00.151Z,19.27
2022-09-14T12:09:59.614Z,19.32
2022-09-14T12:11:00.131Z,19.35
2022-09-14T12:11:59.870Z,19.37
2022-09-14T12:12:59.602Z,19.45
2022-09-14T12:13:59.854Z,19.42
2022-09-14T12:14:59.916Z,19.53
2022-09-14T12:15:59.827Z,19.52
2022-09-14T12:16:59.844Z,19.55
2022-09-14T12:18:00.102Z,19.65
2022-09-14T12:19:00.256Z,19.52
2022-09-14T12:19:59.582Z,19.64
2022-09-14T12:20:59.842Z,19.7
2022-09-14T12:22:00.320Z,19.75
2022-09-14T12:23:00.086Z,19.8
2022-09-14T12:23:59.816Z,19.82
2022-09-14T12:25:00.084Z,19.85
2022-09-14T12:25:59.814Z,19.79
2022-09-14T12:27:00.076Z,19.82
2022-09-14T12:27:59.809Z,19.79
2022-09-14T12:28:59.793Z,19.79
2022-09-14T12:29:59.534Z,19.78
2022-09-14T12:31:00.298Z,19.82
2022-09-14T12:32:00.043Z,19.82
2022-09-14T12:32:59.784Z,19.79
2022-09-14T12:33:59.519Z,19.83
2022-09-14T12:35:00.054Z,19.86
2022-09-14T12:35:59.513Z,19.92
2022-09-14T12:36:59.799Z,19.85
2022-09-14T12:38:00.078Z,19.9
2022-09-14T12:38:59.496Z,19.79
2022-09-14T12:39:59.926Z,19.86
2022-09-14T12:40:59.748Z,19.85
2022-09-14T12:41:59.746Z,19.79
2022-09-14T12:42:59.735Z,19.72
2022-09-14T12:43:59.740Z,19.72
2022-09-14T12:45:00.059Z,19.8
2022-09-14T12:46:00.182Z,19.79
2022-09-14T12:46:59.464Z,19.89
2022-09-14T12:47:59.720Z,19.98
2022-09-14T12:48:59.712Z,20.02
2022-09-14T12:49:59.453Z,20.02
2022-09-14T12:50:59.476Z,20.01
2022-09-14T12:51:59.704Z,20.07
2022-09-14T12:52:59.723Z,20.2
2022-09-14T12:54:00.034Z,20.19
2022-09-14T12:54:59.950Z,20.3
2022-09-14T12:55:59.691Z,20.32
2022-09-14T12:56:59.686Z,20.46
2022-09-14T12:57:59.992Z,20.51
2022-09-14T12:58:59.681Z,20.6
2022-09-14T12:59:59.940Z,20.63
2022-09-14T13:00:59.530Z,20.57
2022-09-14T13:02:00.248Z,20.58
2022-09-14T13:02:59.975Z,20.53
2022-09-14T13:03:59.661Z,20.54
2022-09-14T13:04:59.918Z,20.53
2022-09-14T13:05:59.914Z,20.6
2022-09-14T13:06:59.679Z,20.58
2022-09-14T13:07:59.937Z,20.72
2022-09-14T13:08:59.900Z,20.68
2022-09-14T13:09:59.967Z,20.81
2022-09-14T13:10:59.639Z,20.79
2022-09-14T13:11:59.666Z,20.75
2022-09-14T13:12:59.928Z,20.74